sensor_id;sensor_type;location;lat;lon;timestamp;temperature;humidity
9437;DHT22;4757;59.334;18.034;2023-06-04T00:00:00;14.80;99.90
9437;DHT22;4757;59.334;18.034;2023-06-04T00:02:27;14.80;99.90
9437;DHT22;4757;59.334;18.034;2023-06-04T00:04:54;14.90;99.90
9437;DHT22;4757;59.334;18.034;2023-06-04T00:07:21;14.80;99.90
9437;DHT22;4757;59.334;18.034;2023-06-04T00:09:48;14.70;99.90
9437;DHT22;4757;59.334;18.034;2023-06-04T00:12:15;14.70;99.90
9437;DHT22;4757;59.334;18.034;2023-06-04T00:14:43;14.60;99.90
9437;DHT22;4757;59.334;18.034;2023-06-04T00:17:11;14.60;99.90
9437;DHT22;4757;59.334;18.034;2023-06-04T00:19:39;14.40;99.90
9437;DHT22;4757;59.334;18.034;2023-06-04T00:22:07;14.30;99.90
9437;DHT22;4757;59.334;18.034;2023-06-04T00:24:37;14.30;99.90
9437;DHT22;4757;59.334;18.034;2023-06-04T00:27:04;14.20;99.90
9437;DHT22;4757;59.334;18.034;2023-06-04T00:29:32;14.30;99.90
9437;DHT22;4757;59.334;18.034;2023-06-04T00:31:59;14.20;99.90
9437;DHT22;4757;59.334;18.034;2023-06-04T00:34:26;14.20;99.90
9437;DHT22;4757;59.334;18.034;2023-06-04T00:36:56;14.40;99.90
9437;DHT22;4757;59.334;18.034;2023-06-04T00:39:24;14.20;99.90
9437;DHT22;4757;59.334;18.034;2023-06-04T00:41:51;14.00;99.90
9437;DHT22;4757;59.334;18.034;2023-06-04T00:44:18;13.90;99.90
9437;DHT22;4757;59.334;18.034;2023-06-04T00:46:45;14.00;99.90
9437;DHT22;4757;59.334;18.034;2023-06-04T00:49:14;14.00;99.90
9437;DHT22;4757;59.334;18.034;2023-06-04T00:51:41;13.90;99.90
9437;DHT22;4757;59.334;18.034;2023-06-04T00:54:08;13.90;99.90
9437;DHT22;4757;59.334;18.034;2023-06-04T00:56:36;13.90;99.90
9437;DHT22;4757;59.334;18.034;2023-06-04T00:59:08;13.90;99.90
9437;DHT22;4757;59.334;18.034;2023-06-04T01:04:41;13.80;99.90
9437;DHT22;4757;59.334;18.034;2023-06-04T01:07:13;13.90;99.90
9437;DHT22;4757;59.334;18.034;2023-06-04T01:09:41;13.80;99.90
9437;DHT22;4757;59.334;18.034;2023-06-04T01:12:10;13.80;99.90
9437;DHT22;4757;59.334;18.034;2023-06-04T01:14:38;13.70;99.90
9437;DHT22;4757;59.334;18.034;2023-06-04T01:17:25;13.70;99.90
9437;DHT22;4757;59.334;18.034;2023-06-04T01:20:07;13.40;99.90
9437;DHT22;4757;59.334;18.034;2023-06-04T01:25:41;13.00;99.90
9437;DHT22;4757;59.334;18.034;2023-06-04T01:28:13;13.20;99.90
9437;DHT22;4757;59.334;18.034;2023-06-04T01:30:46;13.20;99.90
9437;DHT22;4757;59.334;18.034;2023-06-04T01:33:18;13.00;99.90
9437;DHT22;4757;59.334;18.034;2023-06-04T01:35:46;12.80;99.90
9437;DHT22;4757;59.334;18.034;2023-06-04T01:38:13;12.70;99.90
9437;DHT22;4757;59.334;18.034;2023-06-04T01:40:40;12.60;99.90
9437;DHT22;4757;59.334;18.034;2023-06-04T01:43:08;12.60;99.90
9437;DHT22;4757;59.334;18.034;2023-06-04T01:45:35;12.60;99.90
9437;DHT22;4757;59.334;18.034;2023-06-04T01:48:04;12.60;99.90
9437;DHT22;4757;59.334;18.034;2023-06-04T01:50:32;12.70;99.90
9437;DHT22;4757;59.334;18.034;2023-06-04T01:52:59;12.70;99.90
9437;DHT22;4757;59.334;18.034;2023-06-04T01:55:27;12.70;99.90
9437;DHT22;4757;59.334;18.034;2023-06-04T01:57:56;12.70;99.90
9437;DHT22;4757;59.334;18.034;2023-06-04T02:00:25;12.80;99.90
9437;DHT22;4757;59.334;18.034;2023-06-04T02:02:53;12.70;99.90
9437;DHT22;4757;59.334;18.034;2023-06-04T02:05:22;12.60;99.90
9437;DHT22;4757;59.334;18.034;2023-06-04T02:07:49;12.60;99.90
9437;DHT22;4757;59.334;18.034;2023-06-04T02:10:19;12.80;99.90
9437;DHT22;4757;59.334;18.034;2023-06-04T02:12:58;12.70;99.90
9437;DHT22;4757;59.334;18.034;2023-06-04T02:15:26;12.70;99.90
9437;DHT22;4757;59.334;18.034;2023-06-04T02:17:56;12.70;99.90
9437;DHT22;4757;59.334;18.034;2023-06-04T02:20:29;12.70;99.90
9437;DHT22;4757;59.334;18.034;2023-06-04T02:22:56;12.70;99.90
9437;DHT22;4757;59.334;18.034;2023-06-04T02:25:24;12.50;99.90
9437;DHT22;4757;59.334;18.034;2023-06-04T02:27:51;12.60;99.90
9437;DHT22;4757;59.334;18.034;2023-06-04T02:30:18;12.40;99.90
9437;DHT22;4757;59.334;18.034;2023-06-04T02:32:45;12.30;99.90
9437;DHT22;4757;59.334;18.034;2023-06-04T02:35:18;12.00;99.90
9437;DHT22;4757;59.334;18.034;2023-06-04T02:37:48;11.90;99.90
9437;DHT22;4757;59.334;18.034;2023-06-04T02:40:15;11.80;99.90
9437;DHT22;4757;59.334;18.034;2023-06-04T02:42:43;11.90;99.90
9437;DHT22;4757;59.334;18.034;2023-06-04T02:45:11;11.80;99.90
9437;DHT22;4757;59.334;18.034;2023-06-04T02:47:38;11.70;99.90
9437;DHT22;4757;59.334;18.034;2023-06-04T02:50:05;11.70;99.90
9437;DHT22;4757;59.334;18.034;2023-06-04T02:52:32;11.60;99.90
9437;DHT22;4757;59.334;18.034;2023-06-04T02:55:05;11.30;99.90
9437;DHT22;4757;59.334;18.034;2023-06-04T02:57:33;11.40;99.90
9437;DHT22;4757;59.334;18.034;2023-06-04T03:00:01;11.40;99.90
9437;DHT22;4757;59.334;18.034;2023-06-04T03:02:34;11.50;99.90
9437;DHT22;4757;59.334;18.034;2023-06-04T03:05:02;11.40;99.90
9437;DHT22;4757;59.334;18.034;2023-06-04T03:07:29;11.40;99.90
9437;DHT22;4757;59.334;18.034;2023-06-04T03:09:56;11.60;99.90
9437;DHT22;4757;59.334;18.034;2023-06-04T03:12:24;11.60;99.90
9437;DHT22;4757;59.334;18.034;2023-06-04T03:14:51;11.60;99.90
9437;DHT22;4757;59.334;18.034;2023-06-04T03:17:18;11.40;99.90
9437;DHT22;4757;59.334;18.034;2023-06-04T03:19:45;11.60;99.90
9437;DHT22;4757;59.334;18.034;2023-06-04T03:22:12;11.60;99.90
9437;DHT22;4757;59.334;18.034;2023-06-04T03:24:40;11.60;99.90
9437;DHT22;4757;59.334;18.034;2023-06-04T03:27:09;11.50;99.90
9437;DHT22;4757;59.334;18.034;2023-06-04T03:29:37;11.50;99.90
9437;DHT22;4757;59.334;18.034;2023-06-04T03:32:04;11.40;99.90
9437;DHT22;4757;59.334;18.034;2023-06-04T03:34:32;11.30;99.90
9437;DHT22;4757;59.334;18.034;2023-06-04T03:37:01;11.30;99.90
9437;DHT22;4757;59.334;18.034;2023-06-04T03:39:29;11.10;99.90
9437;DHT22;4757;59.334;18.034;2023-06-04T03:41:56;11.00;99.90
9437;DHT22;4757;59.334;18.034;2023-06-04T03:44:23;11.20;99.90
9437;DHT22;4757;59.334;18.034;2023-06-04T03:46:50;11.00;99.90
9437;DHT22;4757;59.334;18.034;2023-06-04T03:49:18;11.10;99.90
9437;DHT22;4757;59.334;18.034;2023-06-04T03:51:46;11.00;99.90
9437;DHT22;4757;59.334;18.034;2023-06-04T03:54:14;11.00;99.90
9437;DHT22;4757;59.334;18.034;2023-06-04T03:56:44;11.10;99.90
9437;DHT22;4757;59.334;18.034;2023-06-04T03:59:12;11.20;99.90
9437;DHT22;4757;59.334;18.034;2023-06-04T04:01:48;11.30;99.90
9437;DHT22;4757;59.334;18.034;2023-06-04T04:04:15;11.30;99.90
9437;DHT22;4757;59.334;18.034;2023-06-04T04:06:42;11.20;99.90
9437;DHT22;4757;59.334;18.034;2023-06-04T04:09:09;11.30;99.90
9437;DHT22;4757;59.334;18.034;2023-06-04T04:11:36;11.30;99.90
9437;DHT22;4757;59.334;18.034;2023-06-04T04:14:03;11.40;99.90
9437;DHT22;4757;59.334;18.034;2023-06-04T04:16:31;11.30;99.90
9437;DHT22;4757;59.334;18.034;2023-06-04T04:18:58;11.40;99.90
9437;DHT22;4757;59.334;18.034;2023-06-04T04:21:25;11.10;99.90
9437;DHT22;4757;59.334;18.034;2023-06-04T04:23:53;11.00;99.90
9437;DHT22;4757;59.334;18.034;2023-06-04T04:26:21;11.10;99.60
9437;DHT22;4757;59.334;18.034;2023-06-04T04:28:48;11.20;99.50
9437;DHT22;4757;59.334;18.034;2023-06-04T04:31:15;11.30;99.20
9437;DHT22;4757;59.334;18.034;2023-06-04T04:33:42;11.30;99.00
9437;DHT22;4757;59.334;18.034;2023-06-04T04:36:10;11.10;98.30
9437;DHT22;4757;59.334;18.034;2023-06-04T04:38:40;11.00;98.70
9437;DHT22;4757;59.334;18.034;2023-06-04T04:41:09;11.00;98.80
9437;DHT22;4757;59.334;18.034;2023-06-04T04:43:38;10.90;99.30
9437;DHT22;4757;59.334;18.034;2023-06-04T04:46:06;11.10;99.20
9437;DHT22;4757;59.334;18.034;2023-06-04T04:48:33;11.30;99.20
9437;DHT22;4757;59.334;18.034;2023-06-04T04:51:01;11.50;99.10
9437;DHT22;4757;59.334;18.034;2023-06-04T04:53:28;11.50;98.90
9437;DHT22;4757;59.334;18.034;2023-06-04T04:55:55;11.60;98.80
9437;DHT22;4757;59.334;18.034;2023-06-04T04:58:22;11.50;98.10
9437;DHT22;4757;59.334;18.034;2023-06-04T05:00:50;11.30;98.20
9437;DHT22;4757;59.334;18.034;2023-06-04T05:03:17;11.40;98.00
9437;DHT22;4757;59.334;18.034;2023-06-04T05:05:44;11.30;97.40
9437;DHT22;4757;59.334;18.034;2023-06-04T05:08:11;11.20;97.50
9437;DHT22;4757;59.334;18.034;2023-06-04T05:10:38;11.40;97.50
9437;DHT22;4757;59.334;18.034;2023-06-04T05:13:05;11.50;97.10
9437;DHT22;4757;59.334;18.034;2023-06-04T05:15:33;11.50;96.80
9437;DHT22;4757;59.334;18.034;2023-06-04T05:18:00;11.40;96.60
9437;DHT22;4757;59.334;18.034;2023-06-04T05:20:27;11.40;96.80
9437;DHT22;4757;59.334;18.034;2023-06-04T05:22:55;11.30;96.90
9437;DHT22;4757;59.334;18.034;2023-06-04T05:25:22;11.40;96.90
9437;DHT22;4757;59.334;18.034;2023-06-04T05:27:50;11.40;97.00
9437;DHT22;4757;59.334;18.034;2023-06-04T05:30:17;11.40;96.80
9437;DHT22;4757;59.334;18.034;2023-06-04T05:32:44;11.50;96.40
9437;DHT22;4757;59.334;18.034;2023-06-04T05:35:11;11.40;96.60
9437;DHT22;4757;59.334;18.034;2023-06-04T05:37:39;11.60;96.70
9437;DHT22;4757;59.334;18.034;2023-06-04T05:40:09;11.40;97.00
9437;DHT22;4757;59.334;18.034;2023-06-04T05:42:38;11.70;97.60
9437;DHT22;4757;59.334;18.034;2023-06-04T05:45:06;11.40;97.10
9437;DHT22;4757;59.334;18.034;2023-06-04T05:47:35;11.70;97.10
9437;DHT22;4757;59.334;18.034;2023-06-04T05:50:02;11.90;97.00
9437;DHT22;4757;59.334;18.034;2023-06-04T05:52:29;11.80;96.30
9437;DHT22;4757;59.334;18.034;2023-06-04T05:54:56;11.50;96.70
9437;DHT22;4757;59.334;18.034;2023-06-04T05:57:23;11.60;96.80
9437;DHT22;4757;59.334;18.034;2023-06-04T05:59:50;11.50;96.90
9437;DHT22;4757;59.334;18.034;2023-06-04T06:02:18;11.50;96.90
9437;DHT22;4757;59.334;18.034;2023-06-04T06:04:45;11.40;96.80
9437;DHT22;4757;59.334;18.034;2023-06-04T06:07:12;11.70;96.40
9437;DHT22;4757;59.334;18.034;2023-06-04T06:09:39;11.90;96.30
9437;DHT22;4757;59.334;18.034;2023-06-04T06:12:06;11.80;96.10
9437;DHT22;4757;59.334;18.034;2023-06-04T06:14:33;11.70;96.20
9437;DHT22;4757;59.334;18.034;2023-06-04T06:17:00;11.90;96.10
9437;DHT22;4757;59.334;18.034;2023-06-04T06:19:29;12.10;96.20
9437;DHT22;4757;59.334;18.034;2023-06-04T06:21:56;11.80;96.00
9437;DHT22;4757;59.334;18.034;2023-06-04T06:24:25;11.70;96.10
9437;DHT22;4757;59.334;18.034;2023-06-04T06:26:52;11.70;96.20
9437;DHT22;4757;59.334;18.034;2023-06-04T06:29:20;11.60;96.10
9437;DHT22;4757;59.334;18.034;2023-06-04T06:31:50;11.70;96.50
9437;DHT22;4757;59.334;18.034;2023-06-04T06:34:17;11.90;96.50
9437;DHT22;4757;59.334;18.034;2023-06-04T06:36:44;11.90;96.30
9437;DHT22;4757;59.334;18.034;2023-06-04T06:39:11;12.10;96.30
9437;DHT22;4757;59.334;18.034;2023-06-04T06:41:38;12.00;96.10
9437;DHT22;4757;59.334;18.034;2023-06-04T06:44:06;12.40;96.20
9437;DHT22;4757;59.334;18.034;2023-06-04T06:46:33;12.10;95.70
9437;DHT22;4757;59.334;18.034;2023-06-04T06:49:00;11.80;96.10
9437;DHT22;4757;59.334;18.034;2023-06-04T06:51:28;12.30;95.70
9437;DHT22;4757;59.334;18.034;2023-06-04T06:53:55;12.70;95.20
9437;DHT22;4757;59.334;18.034;2023-06-04T06:56:23;13.30;94.40
9437;DHT22;4757;59.334;18.034;2023-06-04T06:58:50;13.90;93.90
9437;DHT22;4757;59.334;18.034;2023-06-04T07:01:18;14.00;93.50
9437;DHT22;4757;59.334;18.034;2023-06-04T07:03:45;14.20;93.40
9437;DHT22;4757;59.334;18.034;2023-06-04T07:06:12;13.90;93.30
9437;DHT22;4757;59.334;18.034;2023-06-04T07:08:39;13.90;93.60
9437;DHT22;4757;59.334;18.034;2023-06-04T07:11:06;14.30;93.70
9437;DHT22;4757;59.334;18.034;2023-06-04T07:13:34;14.70;93.40
9437;DHT22;4757;59.334;18.034;2023-06-04T07:16:02;15.30;92.80
9437;DHT22;4757;59.334;18.034;2023-06-04T07:18:29;15.10;92.20
9437;DHT22;4757;59.334;18.034;2023-06-04T07:20:56;14.60;92.70
9437;DHT22;4757;59.334;18.034;2023-06-04T07:23:23;14.00;93.30
9437;DHT22;4757;59.334;18.034;2023-06-04T07:25:51;14.20;93.00
9437;DHT22;4757;59.334;18.034;2023-06-04T07:28:18;14.20;92.80
9437;DHT22;4757;59.334;18.034;2023-06-04T07:30:46;14.50;92.70
9437;DHT22;4757;59.334;18.034;2023-06-04T07:33:13;14.90;92.50
9437;DHT22;4757;59.334;18.034;2023-06-04T07:35:40;15.30;92.00
9437;DHT22;4757;59.334;18.034;2023-06-04T07:38:07;15.50;91.60
9437;DHT22;4757;59.334;18.034;2023-06-04T07:40:34;15.00;91.70
9437;DHT22;4757;59.334;18.034;2023-06-04T07:43:01;15.40;91.90
9437;DHT22;4757;59.334;18.034;2023-06-04T07:45:28;15.70;91.60
9437;DHT22;4757;59.334;18.034;2023-06-04T07:48:01;15.90;91.30
9437;DHT22;4757;59.334;18.034;2023-06-04T07:50:28;15.20;91.60
9437;DHT22;4757;59.334;18.034;2023-06-04T07:52:58;14.50;91.80
9437;DHT22;4757;59.334;18.034;2023-06-04T07:55:25;15.20;91.30
9437;DHT22;4757;59.334;18.034;2023-06-04T07:57:53;15.00;91.80
9437;DHT22;4757;59.334;18.034;2023-06-04T08:00:20;14.90;92.10
9437;DHT22;4757;59.334;18.034;2023-06-04T08:02:47;14.90;92.10
9437;DHT22;4757;59.334;18.034;2023-06-04T08:05:16;15.90;91.00
9437;DHT22;4757;59.334;18.034;2023-06-04T08:07:43;15.40;91.40
9437;DHT22;4757;59.334;18.034;2023-06-04T08:10:10;15.70;91.70
9437;DHT22;4757;59.334;18.034;2023-06-04T08:12:37;16.10;91.20
9437;DHT22;4757;59.334;18.034;2023-06-04T08:15:05;14.90;91.50
9437;DHT22;4757;59.334;18.034;2023-06-04T08:17:32;14.60;92.20
9437;DHT22;4757;59.334;18.034;2023-06-04T08:19:59;15.20;91.90
9437;DHT22;4757;59.334;18.034;2023-06-04T08:22:27;15.70;91.00
9437;DHT22;4757;59.334;18.034;2023-06-04T08:24:56;16.10;90.80
9437;DHT22;4757;59.334;18.034;2023-06-04T08:27:23;16.20;89.80
9437;DHT22;4757;59.334;18.034;2023-06-04T08:29:50;15.60;90.80
9437;DHT22;4757;59.334;18.034;2023-06-04T08:32:19;15.40;90.90
9437;DHT22;4757;59.334;18.034;2023-06-04T08:34:46;14.60;91.80
9437;DHT22;4757;59.334;18.034;2023-06-04T08:37:13;14.90;91.60
9437;DHT22;4757;59.334;18.034;2023-06-04T08:39:40;15.20;90.90
9437;DHT22;4757;59.334;18.034;2023-06-04T08:42:13;14.40;91.90
9437;DHT22;4757;59.334;18.034;2023-06-04T08:44:43;14.30;92.60
9437;DHT22;4757;59.334;18.034;2023-06-04T08:47:13;14.00;91.90
9437;DHT22;4757;59.334;18.034;2023-06-04T08:49:41;13.40;92.30
9437;DHT22;4757;59.334;18.034;2023-06-04T08:52:10;13.90;92.40
9437;DHT22;4757;59.334;18.034;2023-06-04T08:54:38;13.60;93.40
9437;DHT22;4757;59.334;18.034;2023-06-04T08:57:05;13.70;93.50
9437;DHT22;4757;59.334;18.034;2023-06-04T08:59:32;13.60;93.40
9437;DHT22;4757;59.334;18.034;2023-06-04T09:02:00;13.80;93.10
9437;DHT22;4757;59.334;18.034;2023-06-04T09:04:27;13.80;92.70
9437;DHT22;4757;59.334;18.034;2023-06-04T09:07:02;13.90;92.80
9437;DHT22;4757;59.334;18.034;2023-06-04T09:09:29;14.00;92.50
9437;DHT22;4757;59.334;18.034;2023-06-04T09:11:57;13.40;93.20
9437;DHT22;4757;59.334;18.034;2023-06-04T09:14:25;13.30;93.50
9437;DHT22;4757;59.334;18.034;2023-06-04T09:16:54;13.50;93.40
9437;DHT22;4757;59.334;18.034;2023-06-04T09:19:22;13.60;93.00
9437;DHT22;4757;59.334;18.034;2023-06-04T09:21:57;13.80;92.90
9437;DHT22;4757;59.334;18.034;2023-06-04T09:24:26;13.90;92.90
9437;DHT22;4757;59.334;18.034;2023-06-04T09:27:13;14.00;93.00
9437;DHT22;4757;59.334;18.034;2023-06-04T09:29:49;14.20;92.80
9437;DHT22;4757;59.334;18.034;2023-06-04T09:32:27;14.20;92.80
9437;DHT22;4757;59.334;18.034;2023-06-04T09:35:17;13.40;93.60
9437;DHT22;4757;59.334;18.034;2023-06-04T09:37:54;13.40;93.60
9437;DHT22;4757;59.334;18.034;2023-06-04T09:40:23;13.70;93.10
9437;DHT22;4757;59.334;18.034;2023-06-04T09:42:51;14.70;92.60
9437;DHT22;4757;59.334;18.034;2023-06-04T09:45:32;14.30;92.60
9437;DHT22;4757;59.334;18.034;2023-06-04T09:48:00;14.60;92.40
9437;DHT22;4757;59.334;18.034;2023-06-04T09:50:31;14.80;92.10
9437;DHT22;4757;59.334;18.034;2023-06-04T09:52:59;14.00;92.60
9437;DHT22;4757;59.334;18.034;2023-06-04T09:55:27;14.00;92.60
9437;DHT22;4757;59.334;18.034;2023-06-04T09:57:54;14.50;92.60
9437;DHT22;4757;59.334;18.034;2023-06-04T10:00:22;15.30;92.00
9437;DHT22;4757;59.334;18.034;2023-06-04T10:02:56;15.60;91.40
9437;DHT22;4757;59.334;18.034;2023-06-04T10:05:25;16.70;91.10
9437;DHT22;4757;59.334;18.034;2023-06-04T10:07:55;16.80;90.50
9437;DHT22;4757;59.334;18.034;2023-06-04T10:10:25;17.90;88.90
9437;DHT22;4757;59.334;18.034;2023-06-04T10:13:16;17.70;88.70
9437;DHT22;4757;59.334;18.034;2023-06-04T10:15:45;17.00;89.70
9437;DHT22;4757;59.334;18.034;2023-06-04T10:18:14;16.60;89.50
9437;DHT22;4757;59.334;18.034;2023-06-04T10:20:42;16.50;90.00
9437;DHT22;4757;59.334;18.034;2023-06-04T10:23:10;15.90;90.20
9437;DHT22;4757;59.334;18.034;2023-06-04T10:25:38;15.50;90.90
9437;DHT22;4757;59.334;18.034;2023-06-04T10:28:05;15.40;90.80
9437;DHT22;4757;59.334;18.034;2023-06-04T10:30:32;15.20;90.90
9437;DHT22;4757;59.334;18.034;2023-06-04T10:33:00;15.50;91.00
9437;DHT22;4757;59.334;18.034;2023-06-04T10:35:35;15.80;90.90
9437;DHT22;4757;59.334;18.034;2023-06-04T10:38:10;15.40;90.80
9437;DHT22;4757;59.334;18.034;2023-06-04T10:40:38;15.80;90.60
9437;DHT22;4757;59.334;18.034;2023-06-04T10:43:10;16.30;89.10
9437;DHT22;4757;59.334;18.034;2023-06-04T10:45:38;15.80;89.70
9437;DHT22;4757;59.334;18.034;2023-06-04T10:48:10;15.80;90.00
9437;DHT22;4757;59.334;18.034;2023-06-04T10:50:51;16.20;90.00
9437;DHT22;4757;59.334;18.034;2023-06-04T10:53:19;16.50;90.00
9437;DHT22;4757;59.334;18.034;2023-06-04T10:55:48;16.10;90.20
9437;DHT22;4757;59.334;18.034;2023-06-04T10:58:17;15.70;90.40
9437;DHT22;4757;59.334;18.034;2023-06-04T11:00:45;15.20;90.80
9437;DHT22;4757;59.334;18.034;2023-06-04T11:03:14;15.90;90.60
9437;DHT22;4757;59.334;18.034;2023-06-04T11:05:44;15.10;90.80
9437;DHT22;4757;59.334;18.034;2023-06-04T11:08:12;15.60;90.90
9437;DHT22;4757;59.334;18.034;2023-06-04T11:10:45;15.40;90.70
9437;DHT22;4757;59.334;18.034;2023-06-04T11:13:13;15.60;91.00
9437;DHT22;4757;59.334;18.034;2023-06-04T11:15:44;14.90;91.40
9437;DHT22;4757;59.334;18.034;2023-06-04T11:18:16;15.20;91.50
9437;DHT22;4757;59.334;18.034;2023-06-04T11:20:48;15.60;91.40
9437;DHT22;4757;59.334;18.034;2023-06-04T11:23:16;15.90;91.20
9437;DHT22;4757;59.334;18.034;2023-06-04T11:25:44;16.10;90.70
9437;DHT22;4757;59.334;18.034;2023-06-04T11:28:16;15.50;91.10
9437;DHT22;4757;59.334;18.034;2023-06-04T11:31:01;16.40;90.40
9437;DHT22;4757;59.334;18.034;2023-06-04T11:33:46;15.60;90.50
9437;DHT22;4757;59.334;18.034;2023-06-04T11:36:27;15.80;90.90
9437;DHT22;4757;59.334;18.034;2023-06-04T11:38:58;16.20;90.50
9437;DHT22;4757;59.334;18.034;2023-06-04T11:41:33;15.70;90.60
9437;DHT22;4757;59.334;18.034;2023-06-04T11:44:04;15.80;90.90
9437;DHT22;4757;59.334;18.034;2023-06-04T11:46:39;16.30;90.80
9437;DHT22;4757;59.334;18.034;2023-06-04T11:49:08;15.90;91.10
9437;DHT22;4757;59.334;18.034;2023-06-04T11:51:35;16.30;90.80
9437;DHT22;4757;59.334;18.034;2023-06-04T11:54:03;16.10;90.60
9437;DHT22;4757;59.334;18.034;2023-06-04T11:56:30;15.70;90.90
9437;DHT22;4757;59.334;18.034;2023-06-04T11:58:58;15.20;91.30
9437;DHT22;4757;59.334;18.034;2023-06-04T12:01:25;15.70;90.90
9437;DHT22;4757;59.334;18.034;2023-06-04T12:03:55;15.70;90.70
9437;DHT22;4757;59.334;18.034;2023-06-04T12:06:22;15.80;90.90
9437;DHT22;4757;59.334;18.034;2023-06-04T12:08:52;15.70;90.70
9437;DHT22;4757;59.334;18.034;2023-06-04T12:11:34;16.30;90.40
9437;DHT22;4757;59.334;18.034;2023-06-04T12:14:05;16.60;90.20
9437;DHT22;4757;59.334;18.034;2023-06-04T12:16:33;15.80;90.90
9437;DHT22;4757;59.334;18.034;2023-06-04T12:19:08;16.20;90.80
9437;DHT22;4757;59.334;18.034;2023-06-04T12:21:38;16.10;90.80
9437;DHT22;4757;59.334;18.034;2023-06-04T12:26:37;15.80;90.90
9437;DHT22;4757;59.334;18.034;2023-06-04T12:29:12;15.90;90.50
9437;DHT22;4757;59.334;18.034;2023-06-04T12:31:41;16.80;90.00
9437;DHT22;4757;59.334;18.034;2023-06-04T12:34:10;16.60;90.00
9437;DHT22;4757;59.334;18.034;2023-06-04T12:36:38;16.20;90.20
9437;DHT22;4757;59.334;18.034;2023-06-04T12:39:05;16.70;89.80
9437;DHT22;4757;59.334;18.034;2023-06-04T12:41:34;16.30;90.20
9437;DHT22;4757;59.334;18.034;2023-06-04T12:44:02;16.10;90.20
9437;DHT22;4757;59.334;18.034;2023-06-04T12:46:29;16.60;90.30
9437;DHT22;4757;59.334;18.034;2023-06-04T12:48:56;17.20;89.10
9437;DHT22;4757;59.334;18.034;2023-06-04T12:51:23;16.50;90.00
9437;DHT22;4757;59.334;18.034;2023-06-04T12:53:51;16.00;90.50
9437;DHT22;4757;59.334;18.034;2023-06-04T12:56:18;16.20;90.50
9437;DHT22;4757;59.334;18.034;2023-06-04T12:58:45;16.20;90.40
9437;DHT22;4757;59.334;18.034;2023-06-04T13:01:12;16.80;89.80
9437;DHT22;4757;59.334;18.034;2023-06-04T13:03:43;16.80;89.50
9437;DHT22;4757;59.334;18.034;2023-06-04T13:06:10;16.30;89.90
9437;DHT22;4757;59.334;18.034;2023-06-04T13:08:37;16.40;90.20
9437;DHT22;4757;59.334;18.034;2023-06-04T13:11:04;16.90;90.00
9437;DHT22;4757;59.334;18.034;2023-06-04T13:13:32;16.70;90.00
9437;DHT22;4757;59.334;18.034;2023-06-04T13:16:00;16.80;90.10
9437;DHT22;4757;59.334;18.034;2023-06-04T13:18:27;16.70;89.60
9437;DHT22;4757;59.334;18.034;2023-06-04T13:20:54;16.40;90.30
9437;DHT22;4757;59.334;18.034;2023-06-04T13:23:22;15.60;90.70
9437;DHT22;4757;59.334;18.034;2023-06-04T13:26:03;16.40;90.50
9437;DHT22;4757;59.334;18.034;2023-06-04T13:28:30;17.20;90.20
9437;DHT22;4757;59.334;18.034;2023-06-04T13:30:57;17.80;87.70
9437;DHT22;4757;59.334;18.034;2023-06-04T13:33:24;17.70;88.40
9437;DHT22;4757;59.334;18.034;2023-06-04T13:35:51;17.40;88.50
9437;DHT22;4757;59.334;18.034;2023-06-04T13:38:18;17.40;89.30
9437;DHT22;4757;59.334;18.034;2023-06-04T13:40:46;17.20;90.00
9437;DHT22;4757;59.334;18.034;2023-06-04T13:43:13;17.50;89.50
9437;DHT22;4757;59.334;18.034;2023-06-04T13:45:40;18.30;87.80
9437;DHT22;4757;59.334;18.034;2023-06-04T13:48:07;19.10;86.40
9437;DHT22;4757;59.334;18.034;2023-06-04T13:50:35;18.10;85.70
9437;DHT22;4757;59.334;18.034;2023-06-04T13:53:02;18.80;86.10
9437;DHT22;4757;59.334;18.034;2023-06-04T13:55:29;18.60;86.10
9437;DHT22;4757;59.334;18.034;2023-06-04T13:57:56;18.80;86.30
9437;DHT22;4757;59.334;18.034;2023-06-04T14:00:23;19.30;85.20
9437;DHT22;4757;59.334;18.034;2023-06-04T14:02:51;19.00;85.30
9437;DHT22;4757;59.334;18.034;2023-06-04T14:05:19;18.30;86.20
9437;DHT22;4757;59.334;18.034;2023-06-04T14:07:46;17.40;87.80
9437;DHT22;4757;59.334;18.034;2023-06-04T14:10:14;17.30;88.50
9437;DHT22;4757;59.334;18.034;2023-06-04T14:12:41;17.60;88.50
9437;DHT22;4757;59.334;18.034;2023-06-04T14:15:08;17.30;88.40
9437;DHT22;4757;59.334;18.034;2023-06-04T14:17:36;17.80;87.70
9437;DHT22;4757;59.334;18.034;2023-06-04T14:20:05;17.70;87.10
9437;DHT22;4757;59.334;18.034;2023-06-04T14:22:35;17.70;87.80
9437;DHT22;4757;59.334;18.034;2023-06-04T14:25:03;17.90;87.20
9437;DHT22;4757;59.334;18.034;2023-06-04T14:27:31;18.20;87.10
9437;DHT22;4757;59.334;18.034;2023-06-04T14:29:58;18.30;86.40
9437;DHT22;4757;59.334;18.034;2023-06-04T14:32:25;18.20;86.50
9437;DHT22;4757;59.334;18.034;2023-06-04T14:34:53;17.80;87.10
9437;DHT22;4757;59.334;18.034;2023-06-04T14:37:20;17.60;87.70
9437;DHT22;4757;59.334;18.034;2023-06-04T14:39:47;17.50;87.90
9437;DHT22;4757;59.334;18.034;2023-06-04T14:42:16;18.10;87.30
9437;DHT22;4757;59.334;18.034;2023-06-04T14:44:43;18.80;85.70
9437;DHT22;4757;59.334;18.034;2023-06-04T14:47:10;18.50;85.10
9437;DHT22;4757;59.334;18.034;2023-06-04T14:49:39;18.30;86.20
9437;DHT22;4757;59.334;18.034;2023-06-04T14:52:06;19.00;85.50
9437;DHT22;4757;59.334;18.034;2023-06-04T14:54:33;19.40;84.70
9437;DHT22;4757;59.334;18.034;2023-06-04T14:57:02;19.70;84.80
9437;DHT22;4757;59.334;18.034;2023-06-04T14:59:30;18.80;85.20
9437;DHT22;4757;59.334;18.034;2023-06-04T15:01:57;18.90;86.10
9437;DHT22;4757;59.334;18.034;2023-06-04T15:04:24;19.00;85.90
9437;DHT22;4757;59.334;18.034;2023-06-04T15:06:51;18.60;86.70
9437;DHT22;4757;59.334;18.034;2023-06-04T15:09:18;18.20;86.70
9437;DHT22;4757;59.334;18.034;2023-06-04T15:11:46;17.60;87.60
9437;DHT22;4757;59.334;18.034;2023-06-04T15:14:16;18.00;87.90
9437;DHT22;4757;59.334;18.034;2023-06-04T15:16:43;18.00;87.80
9437;DHT22;4757;59.334;18.034;2023-06-04T15:19:10;17.40;88.10
9437;DHT22;4757;59.334;18.034;2023-06-04T15:21:37;17.80;88.00
9437;DHT22;4757;59.334;18.034;2023-06-04T15:24:04;18.10;87.80
9437;DHT22;4757;59.334;18.034;2023-06-04T15:26:31;18.50;86.70
9437;DHT22;4757;59.334;18.034;2023-06-04T15:28:59;18.70;86.70
9437;DHT22;4757;59.334;18.034;2023-06-04T15:31:26;18.40;87.00
9437;DHT22;4757;59.334;18.034;2023-06-04T15:33:53;18.20;87.10
9437;DHT22;4757;59.334;18.034;2023-06-04T15:36:20;18.30;87.70
9437;DHT22;4757;59.334;18.034;2023-06-04T15:38:48;18.10;87.50
9437;DHT22;4757;59.334;18.034;2023-06-04T15:41:17;18.20;86.90
9437;DHT22;4757;59.334;18.034;2023-06-04T15:43:45;18.40;86.00
9437;DHT22;4757;59.334;18.034;2023-06-04T15:46:13;18.80;86.30
9437;DHT22;4757;59.334;18.034;2023-06-04T15:48:40;18.50;85.80
9437;DHT22;4757;59.334;18.034;2023-06-04T15:51:07;19.00;86.40
9437;DHT22;4757;59.334;18.034;2023-06-04T15:53:35;18.80;85.80
9437;DHT22;4757;59.334;18.034;2023-06-04T15:56:03;19.10;85.70
9437;DHT22;4757;59.334;18.034;2023-06-04T15:58:30;18.10;86.80
9437;DHT22;4757;59.334;18.034;2023-06-04T16:00:57;17.90;87.10